sensor_id;sensor_type;location;lat;lon;timestamp;P1;durP1;ratioP1;P2;durP2;ratioP2
7683;SDS011;3884;48.616;12.872;2023-05-10T00:01:16;5.90;;;5.33;;
7683;SDS011;3884;48.616;12.872;2023-05-10T00:03:42;6.97;;;5.57;;
7683;SDS011;3884;48.616;12.872;2023-05-10T00:06:09;7.40;;;5.53;;
7683;SDS011;3884;48.616;12.872;2023-05-10T00:08:38;5.83;;;5.23;;
7683;SDS011;3884;48.616;12.872;2023-05-10T00:11:05;6.47;;;5.87;;
7683;SDS011;3884;48.616;12.872;2023-05-10T00:13:32;7.97;;;6.20;;
7683;SDS011;3884;48.616;12.872;2023-05-10T00:15:59;6.23;;;5.63;;
7683;SDS011;3884;48.616;12.872;2023-05-10T00:18:26;6.53;;;5.60;;
7683;SDS011;3884;48.616;12.872;2023-05-10T00:20:53;5.73;;;5.23;;
7683;SDS011;3884;48.616;12.872;2023-05-10T00:23:19;6.77;;;5.93;;
7683;SDS011;3884;48.616;12.872;2023-05-10T00:25:48;11.23;;;5.43;;
7683;SDS011;3884;48.616;12.872;2023-05-10T00:28:15;7.90;;;5.90;;
7683;SDS011;3884;48.616;12.872;2023-05-10T00:30:41;7.10;;;5.40;;
7683;SDS011;3884;48.616;12.872;2023-05-10T00:33:08;5.83;;;5.23;;
7683;SDS011;3884;48.616;12.872;2023-05-10T00:35:36;7.23;;;5.57;;
7683;SDS011;3884;48.616;12.872;2023-05-10T00:38:03;6.20;;;5.60;;
7683;SDS011;3884;48.616;12.872;2023-05-10T00:40:30;6.23;;;5.60;;
7683;SDS011;3884;48.616;12.872;2023-05-10T00:43:03;6.53;;;5.80;;
7683;SDS011;3884;48.616;12.872;2023-05-10T00:45:30;6.57;;;5.53;;
7683;SDS011;3884;48.616;12.872;2023-05-10T00:47:58;6.43;;;5.77;;
7683;SDS011;3884;48.616;12.872;2023-05-10T00:50:27;8.20;;;6.37;;
7683;SDS011;3884;48.616;12.872;2023-05-10T00:52:54;7.30;;;6.40;;
7683;SDS011;3884;48.616;12.872;2023-05-10T00:55:21;6.83;;;5.87;;
7683;SDS011;3884;48.616;12.872;2023-05-10T00:57:48;7.93;;;5.90;;
7683;SDS011;3884;48.616;12.872;2023-05-10T01:00:17;7.20;;;6.33;;
7683;SDS011;3884;48.616;12.872;2023-05-10T01:02:44;7.17;;;6.47;;
7683;SDS011;3884;48.616;12.872;2023-05-10T01:05:12;6.50;;;5.70;;
7683;SDS011;3884;48.616;12.872;2023-05-10T01:07:39;7.93;;;5.67;;
7683;SDS011;3884;48.616;12.872;2023-05-10T01:10:07;6.63;;;5.57;;
7683;SDS011;3884;48.616;12.872;2023-05-10T01:12:35;6.30;;;5.70;;
7683;SDS011;3884;48.616;12.872;2023-05-10T01:15:05;6.87;;;5.93;;
7683;SDS011;3884;48.616;12.872;2023-05-10T01:17:35;6.80;;;6.10;;
7683;SDS011;3884;48.616;12.872;2023-05-10T01:20:04;6.63;;;5.80;;
7683;SDS011;3884;48.616;12.872;2023-05-10T01:22:47;6.10;;;5.50;;
7683;SDS011;3884;48.616;12.872;2023-05-10T01:25:42;7.27;;;5.90;;
7683;SDS011;3884;48.616;12.872;2023-05-10T01:31:28;6.83;;;5.53;;
7683;SDS011;3884;48.616;12.872;2023-05-10T01:34:06;6.30;;;5.73;;
7683;SDS011;3884;48.616;12.872;2023-05-10T01:36:35;7.60;;;6.10;;
7683;SDS011;3884;48.616;12.872;2023-05-10T01:39:11;7.13;;;6.43;;
7683;SDS011;3884;48.616;12.872;2023-05-10T01:41:45;6.90;;;6.20;;
7683;SDS011;3884;48.616;12.872;2023-05-10T01:44:20;8.87;;;5.77;;
7683;SDS011;3884;48.616;12.872;2023-05-10T01:46:55;6.60;;;5.73;;
7683;SDS011;3884;48.616;12.872;2023-05-10T01:49:28;6.63;;;5.73;;
7683;SDS011;3884;48.616;12.872;2023-05-10T01:51:59;7.23;;;5.63;;
7683;SDS011;3884;48.616;12.872;2023-05-10T01:54:30;6.47;;;5.87;;
7683;SDS011;3884;48.616;12.872;2023-05-10T01:57:01;7.70;;;6.13;;
7683;SDS011;3884;48.616;12.872;2023-05-10T01:59:33;7.13;;;6.43;;
7683;SDS011;3884;48.616;12.872;2023-05-10T02:02:04;7.87;;;6.63;;
7683;SDS011;3884;48.616;12.872;2023-05-10T02:04:38;7.33;;;6.50;;
7683;SDS011;3884;48.616;12.872;2023-05-10T02:07:06;6.87;;;6.27;;
7683;SDS011;3884;48.616;12.872;2023-05-10T02:09:35;7.07;;;6.37;;
7683;SDS011;3884;48.616;12.872;2023-05-10T02:12:03;7.73;;;6.90;;
7683;SDS011;3884;48.616;12.872;2023-05-10T02:14:33;7.33;;;6.33;;
7683;SDS011;3884;48.616;12.872;2023-05-10T02:17:02;7.17;;;6.33;;
7683;SDS011;3884;48.616;12.872;2023-05-10T02:19:30;7.13;;;6.40;;
7683;SDS011;3884;48.616;12.872;2023-05-10T02:21:59;7.13;;;6.43;;
7683;SDS011;3884;48.616;12.872;2023-05-10T02:24:28;7.30;;;6.60;;
7683;SDS011;3884;48.616;12.872;2023-05-10T02:26:55;7.37;;;6.67;;
7683;SDS011;3884;48.616;12.872;2023-05-10T02:29:23;10.97;;;6.83;;
7683;SDS011;3884;48.616;12.872;2023-05-10T02:31:53;7.57;;;6.80;;
7683;SDS011;3884;48.616;12.872;2023-05-10T02:34:22;8.10;;;7.30;;
7683;SDS011;3884;48.616;12.872;2023-05-10T02:36:51;9.67;;;6.93;;
7683;SDS011;3884;48.616;12.872;2023-05-10T02:39:20;11.00;;;7.93;;
7683;SDS011;3884;48.616;12.872;2023-05-10T02:41:48;8.00;;;7.20;;
7683;SDS011;3884;48.616;12.872;2023-05-10T02:44:17;10.30;;;7.80;;
7683;SDS011;3884;48.616;12.872;2023-05-10T02:46:45;8.47;;;7.60;;
7683;SDS011;3884;48.616;12.872;2023-05-10T02:49:13;9.67;;;7.87;;
7683;SDS011;3884;48.616;12.872;2023-05-10T02:51:40;10.60;;;8.13;;
7683;SDS011;3884;48.616;12.872;2023-05-10T02:54:11;9.03;;;8.13;;
7683;SDS011;3884;48.616;12.872;2023-05-10T02:56:46;9.47;;;8.47;;
7683;SDS011;3884;48.616;12.872;2023-05-10T02:59:16;10.03;;;8.63;;
7683;SDS011;3884;48.616;12.872;2023-05-10T03:01:43;9.23;;;8.33;;
7683;SDS011;3884;48.616;12.872;2023-05-10T03:04:11;10.47;;;9.43;;
7683;SDS011;3884;48.616;12.872;2023-05-10T03:06:38;10.43;;;9.43;;
7683;SDS011;3884;48.616;12.872;2023-05-10T03:09:05;9.57;;;8.67;;
7683;SDS011;3884;48.616;12.872;2023-05-10T03:11:39;10.83;;;9.73;;
7683;SDS011;3884;48.616;12.872;2023-05-10T03:14:16;10.77;;;9.77;;
7683;SDS011;3884;48.616;12.872;2023-05-10T03:16:55;12.70;;;9.77;;
7683;SDS011;3884;48.616;12.872;2023-05-10T03:19:27;11.23;;;10.03;;
7683;SDS011;3884;48.616;12.872;2023-05-10T03:21:59;11.00;;;9.90;;
7683;SDS011;3884;48.616;12.872;2023-05-10T03:24:34;11.13;;;9.90;;
7683;SDS011;3884;48.616;12.872;2023-05-10T03:27:04;11.40;;;10.17;;
7683;SDS011;3884;48.616;12.872;2023-05-10T03:29:33;11.50;;;9.73;;
7683;SDS011;3884;48.616;12.872;2023-05-10T03:32:01;11.50;;;9.37;;
7683;SDS011;3884;48.616;12.872;2023-05-10T03:34:30;11.30;;;9.33;;
7683;SDS011;3884;48.616;12.872;2023-05-10T03:36:57;11.10;;;9.80;;
7683;SDS011;3884;48.616;12.872;2023-05-10T03:39:26;10.63;;;9.63;;
7683;SDS011;3884;48.616;12.872;2023-05-10T03:41:56;11.20;;;9.70;;
7683;SDS011;3884;48.616;12.872;2023-05-10T03:44:25;10.33;;;9.33;;
7683;SDS011;3884;48.616;12.872;2023-05-10T03:46:52;11.23;;;10.13;;
7683;SDS011;3884;48.616;12.872;2023-05-10T03:49:19;11.07;;;9.97;;
7683;SDS011;3884;48.616;12.872;2023-05-10T03:51:46;10.63;;;9.63;;
7683;SDS011;3884;48.616;12.872;2023-05-10T03:54:13;9.33;;;8.53;;
7683;SDS011;3884;48.616;12.872;2023-05-10T03:56:40;10.07;;;9.03;;
7683;SDS011;3884;48.616;12.872;2023-05-10T03:59:07;9.93;;;9.00;;
7683;SDS011;3884;48.616;12.872;2023-05-10T04:01:35;12.03;;;9.10;;
7683;SDS011;3884;48.616;12.872;2023-05-10T04:04:03;12.00;;;10.80;;
7683;SDS011;3884;48.616;12.872;2023-05-10T04:06:30;10.90;;;9.80;;
7683;SDS011;3884;48.616;12.872;2023-05-10T04:08:58;10.53;;;9.53;;
7683;SDS011;3884;48.616;12.872;2023-05-10T04:11:26;10.83;;;9.73;;
7683;SDS011;3884;48.616;12.872;2023-05-10T04:13:53;12.00;;;10.37;;
7683;SDS011;3884;48.616;12.872;2023-05-10T04:16:20;10.43;;;9.27;;
7683;SDS011;3884;48.616;12.872;2023-05-10T04:18:48;11.33;;;9.27;;
7683;SDS011;3884;48.616;12.872;2023-05-10T04:21:15;9.80;;;8.90;;
7683;SDS011;3884;48.616;12.872;2023-05-10T04:23:42;11.17;;;10.03;;
7683;SDS011;3884;48.616;12.872;2023-05-10T04:26:09;11.23;;;9.37;;
7683;SDS011;3884;48.616;12.872;2023-05-10T04:28:35;10.73;;;9.50;;
7683;SDS011;3884;48.616;12.872;2023-05-10T04:31:03;12.57;;;9.53;;
7683;SDS011;3884;48.616;12.872;2023-05-10T04:33:30;11.27;;;10.13;;
7683;SDS011;3884;48.616;12.872;2023-05-10T04:35:59;10.47;;;8.90;;
7683;SDS011;3884;48.616;12.872;2023-05-10T04:38:27;11.00;;;10.00;;
7683;SDS011;3884;48.616;12.872;2023-05-10T04:40:55;12.00;;;10.80;;
7683;SDS011;3884;48.616;12.872;2023-05-10T04:43:30;12.97;;;10.23;;
7683;SDS011;3884;48.616;12.872;2023-05-10T04:45:56;12.77;;;10.20;;
7683;SDS011;3884;48.616;12.872;2023-05-10T04:48:23;13.33;;;10.60;;
7683;SDS011;3884;48.616;12.872;2023-05-10T04:50:50;12.50;;;11.20;;
7683;SDS011;3884;48.616;12.872;2023-05-10T04:53:18;13.53;;;11.67;;
7683;SDS011;3884;48.616;12.872;2023-05-10T04:55:45;13.40;;;12.00;;
7683;SDS011;3884;48.616;12.872;2023-05-10T04:58:13;13.77;;;12.37;;
7683;SDS011;3884;48.616;12.872;2023-05-10T05:00:40;12.87;;;11.60;;
7683;SDS011;3884;48.616;12.872;2023-05-10T05:03:06;13.30;;;11.83;;
7683;SDS011;3884;48.616;12.872;2023-05-10T05:05:33;13.57;;;12.17;;
7683;SDS011;3884;48.616;12.872;2023-05-10T05:08:00;13.53;;;12.13;;
7683;SDS011;3884;48.616;12.872;2023-05-10T05:10:28;12.83;;;11.50;;
7683;SDS011;3884;48.616;12.872;2023-05-10T05:12:55;13.23;;;11.83;;
7683;SDS011;3884;48.616;12.872;2023-05-10T05:15:22;12.07;;;10.77;;
7683;SDS011;3884;48.616;12.872;2023-05-10T05:17:49;13.60;;;12.00;;
7683;SDS011;3884;48.616;12.872;2023-05-10T05:20:16;12.97;;;11.67;;
7683;SDS011;3884;48.616;12.872;2023-05-10T05:22:44;14.30;;;11.47;;
7683;SDS011;3884;48.616;12.872;2023-05-10T05:25:11;12.60;;;11.30;;
7683;SDS011;3884;48.616;12.872;2023-05-10T05:27:39;12.03;;;10.83;;
7683;SDS011;3884;48.616;12.872;2023-05-10T05:30:06;13.00;;;10.87;;
7683;SDS011;3884;48.616;12.872;2023-05-10T05:32:34;12.03;;;10.73;;
7683;SDS011;3884;48.616;12.872;2023-05-10T05:35:00;12.23;;;11.03;;
7683;SDS011;3884;48.616;12.872;2023-05-10T05:37:27;12.83;;;11.60;;
7683;SDS011;3884;48.616;12.872;2023-05-10T05:39:54;14.63;;;11.90;;
7683;SDS011;3884;48.616;12.872;2023-05-10T05:42:21;13.10;;;11.80;;
7683;SDS011;3884;48.616;12.872;2023-05-10T05:44:49;13.20;;;11.80;;
7683;SDS011;3884;48.616;12.872;2023-05-10T05:47:16;12.83;;;11.43;;
7683;SDS011;3884;48.616;12.872;2023-05-10T05:49:43;14.03;;;12.63;;
7683;SDS011;3884;48.616;12.872;2023-05-10T05:52:11;13.97;;;12.60;;
7683;SDS011;3884;48.616;12.872;2023-05-10T05:54:38;14.23;;;12.83;;
7683;SDS011;3884;48.616;12.872;2023-05-10T05:57:05;14.80;;;12.53;;
7683;SDS011;3884;48.616;12.872;2023-05-10T05:59:32;14.20;;;12.40;;
7683;SDS011;3884;48.616;12.872;2023-05-10T06:02:00;13.90;;;12.50;;
7683;SDS011;3884;48.616;12.872;2023-05-10T06:04:28;13.67;;;12.07;;
7683;SDS011;3884;48.616;12.872;2023-05-10T06:06:55;13.83;;;12.30;;
7683;SDS011;3884;48.616;12.872;2023-05-10T06:09:22;13.67;;;12.37;;
7683;SDS011;3884;48.616;12.872;2023-05-10T06:11:49;14.47;;;12.50;;
7683;SDS011;3884;48.616;12.872;2023-05-10T06:14:16;12.93;;;11.63;;
7683;SDS011;3884;48.616;12.872;2023-05-10T06:16:43;12.30;;;11.10;;
7683;SDS011;3884;48.616;12.872;2023-05-10T06:19:11;10.27;;;9.23;;
7683;SDS011;3884;48.616;12.872;2023-05-10T06:21:38;9.47;;;8.57;;
7683;SDS011;3884;48.616;12.872;2023-05-10T06:24:05;9.90;;;8.07;;
7683;SDS011;3884;48.616;12.872;2023-05-10T06:26:32;9.17;;;8.37;;
7683;SDS011;3884;48.616;12.872;2023-05-10T06:28:59;9.33;;;8.43;;
7683;SDS011;3884;48.616;12.872;2023-05-10T06:31:26;10.03;;;8.83;;
7683;SDS011;3884;48.616;12.872;2023-05-10T06:33:53;8.10;;;7.33;;
7683;SDS011;3884;48.616;12.872;2023-05-10T06:36:21;7.27;;;6.40;;
7683;SDS011;3884;48.616;12.872;2023-05-10T06:38:49;7.17;;;6.47;;
7683;SDS011;3884;48.616;12.872;2023-05-10T06:41:16;7.07;;;6.37;;
7683;SDS011;3884;48.616;12.872;2023-05-10T06:43:43;7.37;;;6.30;;
7683;SDS011;3884;48.616;12.872;2023-05-10T06:46:10;7.87;;;6.10;;
7683;SDS011;3884;48.616;12.872;2023-05-10T06:48:37;7.00;;;6.30;;
7683;SDS011;3884;48.616;12.872;2023-05-10T06:51:04;6.27;;;5.33;;
7683;SDS011;3884;48.616;12.872;2023-05-10T06:53:32;6.00;;;5.40;;
7683;SDS011;3884;48.616;12.872;2023-05-10T06:55:59;5.60;;;5.10;;
7683;SDS011;3884;48.616;12.872;2023-05-10T06:58:26;13.10;;;11.67;;
7683;SDS011;3884;48.616;12.872;2023-05-10T07:00:53;8.23;;;7.47;;
7683;SDS011;3884;48.616;12.872;2023-05-10T07:03:20;5.70;;;5.23;;
7683;SDS011;3884;48.616;12.872;2023-05-10T07:05:47;15.70;;;14.10;;
7683;SDS011;3884;48.616;12.872;2023-05-10T07:08:14;7.83;;;5.77;;
7683;SDS011;3884;48.616;12.872;2023-05-10T07:10:42;5.20;;;4.80;;
7683;SDS011;3884;48.616;12.872;2023-05-10T07:13:09;3.87;;;3.57;;
7683;SDS011;3884;48.616;12.872;2023-05-10T07:15:36;3.97;;;3.67;;
7683;SDS011;3884;48.616;12.872;2023-05-10T07:18:02;3.93;;;3.63;;
7683;SDS011;3884;48.616;12.872;2023-05-10T07:20:31;4.23;;;3.93;;
7683;SDS011;3884;48.616;12.872;2023-05-10T07:22:58;4.47;;;4.10;;
7683;SDS011;3884;48.616;12.872;2023-05-10T07:25:25;4.20;;;3.90;;
7683;SDS011;3884;48.616;12.872;2023-05-10T07:27:53;4.00;;;3.70;;
7683;SDS011;3884;48.616;12.872;2023-05-10T07:30:20;3.67;;;3.37;;
7683;SDS011;3884;48.616;12.872;2023-05-10T07:32:47;3.80;;;3.50;;
7683;SDS011;3884;48.616;12.872;2023-05-10T07:35:14;3.87;;;3.57;;
7683;SDS011;3884;48.616;12.872;2023-05-10T07:37:41;3.40;;;3.10;;
7683;SDS011;3884;48.616;12.872;2023-05-10T07:40:08;3.40;;;3.10;;
7683;SDS011;3884;48.616;12.872;2023-05-10T07:42:35;3.60;;;3.30;;
7683;SDS011;3884;48.616;12.872;2023-05-10T07:45:05;9.33;;;8.40;;
7683;SDS011;3884;48.616;12.872;2023-05-10T07:47:33;11.10;;;10.00;;
7683;SDS011;3884;48.616;12.872;2023-05-10T07:49:59;8.40;;;7.37;;
7683;SDS011;3884;48.616;12.872;2023-05-10T07:52:26;10.53;;;7.73;;
7683;SDS011;3884;48.616;12.872;2023-05-10T07:54:53;8.03;;;7.23;;
7683;SDS011;3884;48.616;12.872;2023-05-10T07:57:21;7.17;;;6.57;;
7683;SDS011;3884;48.616;12.872;2023-05-10T07:59:49;8.30;;;7.53;;
7683;SDS011;3884;48.616;12.872;2023-05-10T08:02:17;9.40;;;8.50;;
7683;SDS011;3884;48.616;12.872;2023-05-10T08:04:44;7.17;;;6.53;;
7683;SDS011;3884;48.616;12.872;2023-05-10T08:07:11;7.77;;;6.97;;
7683;SDS011;3884;48.616;12.872;2023-05-10T08:09:37;6.73;;;6.13;;
7683;SDS011;3884;48.616;12.872;2023-05-10T08:12:05;7.17;;;6.13;;
7683;SDS011;3884;48.616;12.872;2023-05-10T08:14:32;6.80;;;6.13;;
7683;SDS011;3884;48.616;12.872;2023-05-10T08:16:59;7.80;;;7.00;;
7683;SDS011;3884;48.616;12.872;2023-05-10T08:19:27;7.27;;;6.53;;
7683;SDS011;3884;48.616;12.872;2023-05-10T08:21:54;8.43;;;7.63;;
7683;SDS011;3884;48.616;12.872;2023-05-10T08:24:22;8.50;;;7.70;;
7683;SDS011;3884;48.616;12.872;2023-05-10T08:26:49;7.87;;;7.17;;
7683;SDS011;3884;48.616;12.872;2023-05-10T08:29:15;8.83;;;8.03;;
7683;SDS011;3884;48.616;12.872;2023-05-10T08:31:42;8.60;;;7.80;;
7683;SDS011;3884;48.616;12.872;2023-05-10T08:34:10;9.40;;;7.33;;
7683;SDS011;3884;48.616;12.872;2023-05-10T08:36:38;7.87;;;7.17;;
7683;SDS011;3884;48.616;12.872;2023-05-10T08:39:05;7.40;;;6.70;;
7683;SDS011;3884;48.616;12.872;2023-05-10T08:41:32;7.93;;;7.20;;
7683;SDS011;3884;48.616;12.872;2023-05-10T08:44:02;9.43;;;8.43;;
7683;SDS011;3884;48.616;12.872;2023-05-10T08:46:31;8.90;;;8.10;;
7683;SDS011;3884;48.616;12.872;2023-05-10T08:49:02;9.57;;;8.63;;
7683;SDS011;3884;48.616;12.872;2023-05-10T08:51:31;8.87;;;8.07;;
7683;SDS011;3884;48.616;12.872;2023-05-10T08:54:03;8.63;;;7.83;;
7683;SDS011;3884;48.616;12.872;2023-05-10T08:56:30;9.13;;;8.33;;
7683;SDS011;3884;48.616;12.872;2023-05-10T08:58:57;8.53;;;7.63;;
7683;SDS011;3884;48.616;12.872;2023-05-10T09:01:24;9.73;;;8.73;;
7683;SDS011;3884;48.616;12.872;2023-05-10T09:03:52;9.60;;;8.70;;
7683;SDS011;3884;48.616;12.872;2023-05-10T09:06:20;9.90;;;8.20;;
7683;SDS011;3884;48.616;12.872;2023-05-10T09:08:47;9.40;;;8.50;;
7683;SDS011;3884;48.616;12.872;2023-05-10T09:11:15;9.77;;;7.43;;
7683;SDS011;3884;48.616;12.872;2023-05-10T09:13:43;9.17;;;8.20;;
7683;SDS011;3884;48.616;12.872;2023-05-10T09:16:11;8.80;;;7.87;;
7683;SDS011;3884;48.616;12.872;2023-05-10T09:18:38;8.83;;;7.93;;
7683;SDS011;3884;48.616;12.872;2023-05-10T09:21:05;9.70;;;8.73;;
7683;SDS011;3884;48.616;12.872;2023-05-10T09:23:32;8.60;;;7.70;;
7683;SDS011;3884;48.616;12.872;2023-05-10T09:26:03;9.97;;;8.93;;
7683;SDS011;3884;48.616;12.872;2023-05-10T09:28:32;8.53;;;7.80;;
7683;SDS011;3884;48.616;12.872;2023-05-10T09:31:00;9.10;;;8.23;;
7683;SDS011;3884;48.616;12.872;2023-05-10T09:33:27;9.30;;;8.37;;
7683;SDS011;3884;48.616;12.872;2023-05-10T09:35:53;9.63;;;8.73;;
7683;SDS011;3884;48.616;12.872;2023-05-10T09:38:20;9.77;;;8.77;;
7683;SDS011;3884;48.616;12.872;2023-05-10T09:40:50;9.10;;;8.20;;
7683;SDS011;3884;48.616;12.872;2023-05-10T09:43:19;8.40;;;7.60;;
7683;SDS011;3884;48.616;12.872;2023-05-10T09:45:48;10.10;;;9.07;;
7683;SDS011;3884;48.616;12.872;2023-05-10T09:48:15;9.63;;;8.73;;
7683;SDS011;3884;48.616;12.872;2023-05-10T09:50:42;9.90;;;9.07;;
7683;SDS011;3884;48.616;12.872;2023-05-10T09:53:09;7.87;;;7.10;;
7683;SDS011;3884;48.616;12.872;2023-05-10T09:55:41;7.73;;;6.93;;
7683;SDS011;3884;48.616;12.872;2023-05-10T09:58:11;7.60;;;6.77;;
7683;SDS011;3884;48.616;12.872;2023-05-10T10:00:39;9.23;;;7.60;;
7683;SDS011;3884;48.616;12.872;2023-05-10T10:03:13;8.53;;;7.73;;
7683;SDS011;3884;48.616;12.872;2023-05-10T10:05:41;7.80;;;7.03;;
7683;SDS011;3884;48.616;12.872;2023-05-10T10:08:10;7.90;;;7.13;;
7683;SDS011;3884;48.616;12.872;2023-05-10T10:10:38;8.13;;;7.33;;
7683;SDS011;3884;48.616;12.872;2023-05-10T10:13:07;8.30;;;7.50;;
7683;SDS011;3884;48.616;12.872;2023-05-10T10:15:34;7.80;;;7.10;;
7683;SDS011;3884;48.616;12.872;2023-05-10T10:18:01;7.93;;;7.13;;
7683;SDS011;3884;48.616;12.872;2023-05-10T10:20:31;5.80;;;5.30;;
7683;SDS011;3884;48.616;12.872;2023-05-10T10:22:58;5.20;;;4.70;;
7683;SDS011;3884;48.616;12.872;2023-05-10T10:25:24;5.60;;;5.10;;
7683;SDS011;3884;48.616;12.872;2023-05-10T10:27:58;6.80;;;6.20;;
7683;SDS011;3884;48.616;12.872;2023-05-10T10:30:35;5.63;;;5.13;;
7683;SDS011;3884;48.616;12.872;2023-05-10T10:33:18;6.50;;;5.90;;
7683;SDS011;3884;48.616;12.872;2023-05-10T10:36:12;5.90;;;5.40;;
7683;SDS011;3884;48.616;12.872;2023-05-10T10:38:56;6.50;;;5.90;;
7683;SDS011;3884;48.616;12.872;2023-05-10T10:41:31;6.27;;;5.77;;
7683;SDS011;3884;48.616;12.872;2023-05-10T10:46:58;5.93;;;5.43;;
7683;SDS011;3884;48.616;12.872;2023-05-10T10:49:26;7.57;;;6.33;;
7683;SDS011;3884;48.616;12.872;2023-05-10T10:54:41;6.67;;;6.07;;
7683;SDS011;3884;48.616;12.872;2023-05-10T10:57:13;6.10;;;5.50;;
7683;SDS011;3884;48.616;12.872;2023-05-10T10:59:43;6.40;;;5.80;;
7683;SDS011;3884;48.616;12.872;2023-05-10T11:02:10;6.07;;;5.57;;
7683;SDS011;3884;48.616;12.872;2023-05-10T11:07:54;5.60;;;5.10;;
7683;SDS011;3884;48.616;12.872;2023-05-10T11:10:22;6.83;;;6.23;;
7683;SDS011;3884;48.616;12.872;2023-05-10T11:12:51;5.73;;;5.23;;
7683;SDS011;3884;48.616;12.872;2023-05-10T11:15:19;6.50;;;5.90;;
7683;SDS011;3884;48.616;12.872;2023-05-10T11:17:54;6.23;;;5.63;;
7683;SDS011;3884;48.616;12.872;2023-05-10T11:20:21;6.60;;;6.00;;
7683;SDS011;3884;48.616;12.872;2023-05-10T11:22:56;6.17;;;5.60;;
7683;SDS011;3884;48.616;12.872;2023-05-10T11:25:26;6.17;;;5.67;;
7683;SDS011;3884;48.616;12.872;2023-05-10T11:27:56;6.63;;;6.03;;
7683;SDS011;3884;48.616;12.872;2023-05-10T11:30:23;7.10;;;5.00;;
7683;SDS011;3884;48.616;12.872;2023-05-10T11:32:51;5.43;;;4.93;;
7683;SDS011;3884;48.616;12.872;2023-05-10T11:35:18;5.37;;;4.90;;
7683;SDS011;3884;48.616;12.872;2023-05-10T11:37:47;5.00;;;4.60;;
7683;SDS011;3884;48.616;12.872;2023-05-10T11:40:17;4.33;;;3.93;;
7683;SDS011;3884;48.616;12.872;2023-05-10T11:42:44;4.60;;;4.20;;
7683;SDS011;3884;48.616;12.872;2023-05-10T11:45:12;4.67;;;4.23;;
7683;SDS011;3884;48.616;12.872;2023-05-10T11:47:39;6.20;;;4.50;;
7683;SDS011;3884;48.616;12.872;2023-05-10T11:50:08;5.03;;;4.60;;
7683;SDS011;3884;48.616;12.872;2023-05-10T11:52:36;7.47;;;6.67;;
7683;SDS011;3884;48.616;12.872;2023-05-10T11:55:04;6.10;;;5.50;;
7683;SDS011;3884;48.616;12.872;2023-05-10T11:57:33;7.00;;;5.23;;
7683;SDS011;3884;48.616;12.872;2023-05-10T12:00:00;6.83;;;5.27;;
7683;SDS011;3884;48.616;12.872;2023-05-10T12:02:32;5.10;;;4.70;;
7683;SDS011;3884;48.616;12.872;2023-05-10T12:05:00;5.33;;;4.90;;
7683;SDS011;3884;48.616;12.872;2023-05-10T12:07:27;5.70;;;5.20;;
7683;SDS011;3884;48.616;12.872;2023-05-10T12:10:04;5.70;;;5.10;;
7683;SDS011;3884;48.616;12.872;2023-05-10T12:12:38;5.33;;;4.83;;
7683;SDS011;3884;48.616;12.872;2023-05-10T12:15:10;5.93;;;5.33;;
7683;SDS011;3884;48.616;12.872;2023-05-10T12:17:38;5.40;;;4.90;;
7683;SDS011;3884;48.616;12.872;2023-05-10T12:20:15;5.47;;;4.90;;
7683;SDS011;3884;48.616;12.872;2023-05-10T12:22:46;5.80;;;5.30;;
7683;SDS011;3884;48.616;12.872;2023-05-10T12:25:15;7.50;;;5.10;;
7683;SDS011;3884;48.616;12.872;2023-05-10T12:27:55;6.23;;;5.00;;
7683;SDS011;3884;48.616;12.872;2023-05-10T12:30:26;6.17;;;5.60;;
7683;SDS011;3884;48.616;12.872;2023-05-10T12:32:59;6.27;;;5.67;;
7683;SDS011;3884;48.616;12.872;2023-05-10T12:35:29;5.40;;;4.90;;
7683;SDS011;3884;48.616;12.872;2023-05-10T12:37:56;5.20;;;4.70;;
7683;SDS011;3884;48.616;12.872;2023-05-10T12:40:23;4.60;;;4.10;;
7683;SDS011;3884;48.616;12.872;2023-05-10T12:42:53;5.83;;;5.33;;
7683;SDS011;3884;48.616;12.872;2023-05-10T12:45:20;5.57;;;5.07;;
7683;SDS011;3884;48.616;12.872;2023-05-10T12:47:47;6.33;;;5.70;;
7683;SDS011;3884;48.616;12.872;2023-05-10T12:50:40;5.40;;;4.90;;
7683;SDS011;3884;48.616;12.872;2023-05-10T12:53:10;5.80;;;5.30;;
7683;SDS011;3884;48.616;12.872;2023-05-10T12:55:38;6.47;;;4.90;;
7683;SDS011;3884;48.616;12.872;2023-05-10T12:58:12;5.53;;;5.03;;
7683;SDS011;3884;48.616;12.872;2023-05-10T13:00:43;5.57;;;5.07;;
7683;SDS011;3884;48.616;12.872;2023-05-10T13:03:15;5.37;;;4.93;;
7683;SDS011;3884;48.616;12.872;2023-05-10T13:05:42;4.97;;;4.57;;
7683;SDS011;3884;48.616;12.872;2023-05-10T13:08:10;5.37;;;4.87;;
7683;SDS011;3884;48.616;12.872;2023-05-10T13:10:37;4.77;;;4.33;;
7683;SDS011;3884;48.616;12.872;2023-05-10T13:13:03;5.70;;;5.03;;
7683;SDS011;3884;48.616;12.872;2023-05-10T13:15:34;5.97;;;5.27;;
7683;SDS011;3884;48.616;12.872;2023-05-10T13:18:00;5.77;;;5.27;;
7683;SDS011;3884;48.616;12.872;2023-05-10T13:20:31;5.60;;;5.10;;
7683;SDS011;3884;48.616;12.872;2023-05-10T13:22:58;6.80;;;5.70;;
7683;SDS011;3884;48.616;12.872;2023-05-10T13:25:25;5.43;;;4.93;;
7683;SDS011;3884;48.616;12.872;2023-05-10T13:27:52;5.30;;;4.80;;
7683;SDS011;3884;48.616;12.872;2023-05-10T13:30:20;6.10;;;5.50;;
7683;SDS011;3884;48.616;12.872;2023-05-10T13:32:50;5.37;;;4.87;;
7683;SDS011;3884;48.616;12.872;2023-05-10T13:35:17;9.03;;;8.10;;
7683;SDS011;3884;48.616;12.872;2023-05-10T13:37:44;5.27;;;4.77;;
7683;SDS011;3884;48.616;12.872;2023-05-10T13:40:11;5.30;;;4.80;;
7683;SDS011;3884;48.616;12.872;2023-05-10T13:42:38;4.80;;;4.40;;
7683;SDS011;3884;48.616;12.872;2023-05-10T13:45:06;4.50;;;4.10;;
7683;SDS011;3884;48.616;12.872;2023-05-10T13:47:33;4.33;;;3.90;;
7683;SDS011;3884;48.616;12.872;2023-05-10T13:50:01;3.47;;;3.17;;
7683;SDS011;3884;48.616;12.872;2023-05-10T13:52:28;3.57;;;3.27;;
7683;SDS011;3884;48.616;12.872;2023-05-10T13:54:55;3.77;;;3.30;;
7683;SDS011;3884;48.616;12.872;2023-05-10T13:57:22;3.50;;;3.07;;
7683;SDS011;3884;48.616;12.872;2023-05-10T13:59:49;3.90;;;3.60;;
7683;SDS011;3884;48.616;12.872;2023-05-10T14:02:16;3.57;;;3.27;;
7683;SDS011;3884;48.616;12.872;2023-05-10T14:04:43;3.53;;;3.23;;
7683;SDS011;3884;48.616;12.872;2023-05-10T14:07:13;3.60;;;3.30;;
7683;SDS011;3884;48.616;12.872;2023-05-10T14:09:40;3.97;;;3.00;;
7683;SDS011;3884;48.616;12.872;2023-05-10T14:12:07;3.30;;;3.00;;
7683;SDS011;3884;48.616;12.872;2023-05-10T14:14:35;3.40;;;3.10;;
7683;SDS011;3884;48.616;12.872;2023-05-10T14:17:01;3.80;;;3.50;;
7683;SDS011;3884;48.616;12.872;2023-05-10T14:19:29;3.70;;;3.40;;
7683;SDS011;3884;48.616;12.872;2023-05-10T14:21:57;4.07;;;3.77;;
7683;SDS011;3884;48.616;12.872;2023-05-10T14:24:26;3.60;;;3.30;;
7683;SDS011;3884;48.616;12.872;2023-05-10T14:26:53;3.30;;;3.00;;
7683;SDS011;3884;48.616;12.872;2023-05-10T14:32:34;3.83;;;3.53;;
7683;SDS011;3884;48.616;12.872;2023-05-10T14:35:01;4.77;;;4.27;;
7683;SDS011;3884;48.616;12.872;2023-05-10T14:37:28;4.50;;;4.10;;
7683;SDS011;3884;48.616;12.872;2023-05-10T14:39:57;4.00;;;3.70;;
7683;SDS011;3884;48.616;12.872;2023-05-10T14:42:24;4.27;;;3.87;;
7683;SDS011;3884;48.616;12.872;2023-05-10T14:44:51;3.97;;;3.63;;
7683;SDS011;3884;48.616;12.872;2023-05-10T14:47:18;4.17;;;3.77;;
7683;SDS011;3884;48.616;12.872;2023-05-10T14:49:45;3.70;;;3.40;;
7683;SDS011;3884;48.616;12.872;2023-05-10T14:52:12;5.47;;;4.00;;
7683;SDS011;3884;48.616;12.872;2023-05-10T14:54:39;4.40;;;4.00;;
7683;SDS011;3884;48.616;12.872;2023-05-10T14:57:07;6.23;;;4.10;;
7683;SDS011;3884;48.616;12.872;2023-05-10T14:59:34;4.00;;;3.70;;
7683;SDS011;3884;48.616;12.872;2023-05-10T15:02:01;3.97;;;3.63;;
7683;SDS011;3884;48.616;12.872;2023-05-10T15:04:29;5.40;;;4.90;;
7683;SDS011;3884;48.616;12.872;2023-05-10T15:06:56;5.80;;;4.30;;
7683;SDS011;3884;48.616;12.872;2023-05-10T15:09:24;4.63;;;4.23;;
7683;SDS011;3884;48.616;12.872;2023-05-10T15:11:52;5.27;;;4.70;;
7683;SDS011;3884;48.616;12.872;2023-05-10T15:14:21;5.27;;;4.87;;
7683;SDS011;3884;48.616;12.872;2023-05-10T15:16:48;5.23;;;4.83;;
7683;SDS011;3884;48.616;12.872;2023-05-10T15:19:15;6.50;;;5.90;;